Time;durP1;ratioP1;P1;durP2;ratioP2;P2;SDS_P1;SDS_P2;PMS_P1;PMS_P2;Temp;Humidity;BMP_temperature;BMP_pressure;BME280_temperature;BME280_humidity;BME280_pressure;Samples;Min_cycle;Max_cycle;Signal;HPM_P1;HPM_P2
2022/04/24 00:00:09;;;;;;;27.58;17.83;;;13.00;99.90;;;;;;5072930;28;20069;-71
2022/04/24 00:02:35;;;;;;;26.20;16.55;;;12.90;99.90;;;;;;5072706;28;20019;-72
2022/04/24 00:05:03;;;;;;;32.60;19.90;;;12.90;99.90;;;;;;5072860;28;20029;-72
2022/04/24 00:07:29;;;;;;;28.35;18.63;;;12.90;99.90;;;;;;5072710;28;20115;-73
2022/04/24 00:09:55;;;;;;;26.75;19.23;;;12.90;99.90;;;;;;5072387;28;20058;-72
2022/04/24 00:12:21;;;;;;;34.58;19.45;;;12.90;99.90;;;;;;5072122;28;20044;-73
2022/04/24 00:14:48;;;;;;;28.52;19.05;;;12.90;99.90;;;;;;5071901;28;20071;-71
2022/04/24 00:17:16;;;;;;;26.45;18.20;;;12.80;99.90;;;;;;5071684;28;20025;-72
2022/04/24 00:19:43;;;;;;;28.35;18.70;;;12.80;99.90;;;;;;5072337;28;20039;-72
2022/04/24 00:22:09;;;;;;;28.92;18.70;;;12.80;99.90;;;;;;5071698;28;20032;-74
2022/04/24 00:24:35;;;;;;;30.40;18.33;;;12.80;99.90;;;;;;5071808;28;20044;-71
2022/04/24 00:27:01;;;;;;;26.48;18.38;;;12.70;99.90;;;;;;5072009;28;20059;-68
2022/04/24 00:29:27;;;;;;;29.73;17.80;;;12.70;99.90;;;;;;5070639;28;20035;-70
2022/04/24 00:31:53;;;;;;;28.17;18.10;;;12.70;99.90;;;;;;5072603;28;20013;-71
2022/04/24 00:34:19;;;;;;;31.70;18.88;;;12.70;99.90;;;;;;5071938;28;20391;-70
2022/04/24 00:36:45;;;;;;;27.00;15.75;;;12.70;99.90;;;;;;5071549;28;20032;-69
2022/04/24 00:39:14;;;;;;;24.45;16.05;;;12.60;99.90;;;;;;5071938;28;20033;-68
2022/04/24 00:41:47;;;;;;;27.23;17.80;;;12.60;99.90;;;;;;5070346;28;20025;-69
2022/04/24 00:44:15;;;;;;;24.05;16.67;;;12.60;99.90;;;;;;5071497;28;20588;-70
2022/04/24 00:47:00;;;;;;;28.45;17.42;;;12.60;99.90;;;;;;5071243;28;20036;-66
2022/04/24 00:49:26;;;;;;;27.55;17.60;;;12.60;99.90;;;;;;5070628;28;20024;-71
2022/04/24 00:51:52;;;;;;;29.15;18.50;;;12.50;99.90;;;;;;5071170;28;20074;-70
2022/04/24 00:54:19;;;;;;;26.88;17.13;;;12.50;99.90;;;;;;5069614;28;20024;-70
2022/04/24 00:56:45;;;;;;;26.70;17.58;;;12.40;99.90;;;;;;5071294;28;20117;-70
2022/04/24 00:59:13;;;;;;;29.25;17.73;;;12.30;99.90;;;;;;5071207;28;20086;-71
2022/04/24 01:01:40;;;;;;;27.23;18.88;;;12.30;99.90;;;;;;5071304;28;20063;-70
2022/04/24 01:04:08;;;;;;;28.17;19.27;;;12.30;99.90;;;;;;5071329;28;20048;-71
2022/04/24 01:06:42;;;;;;;32.17;18.50;;;12.30;99.90;;;;;;5069058;28;20044;-69
2022/04/24 01:09:21;;;;;;;28.65;16.75;;;12.20;99.90;;;;;;5069390;28;20036;-70
2022/04/24 01:11:49;;;;;;;25.85;16.92;;;12.20;99.90;;;;;;5070730;28;20043;-71
2022/04/24 01:14:16;;;;;;;27.80;17.80;;;12.20;99.90;;;;;;5069472;28;20024;-71
2022/04/24 01:16:43;;;;;;;37.38;24.45;;;12.20;99.90;;;;;;5070758;28;20115;-69
2022/04/24 01:19:09;;;;;;;39.58;25.85;;;12.00;99.90;;;;;;5070986;28;20027;-70
2022/04/24 01:21:36;;;;;;;38.30;24.20;;;11.70;99.90;;;;;;5070729;28;20032;-71
2022/04/24 01:24:06;;;;;;;34.20;22.13;;;11.60;99.90;;;;;;5070944;28;20013;-69
2022/04/24 01:26:33;;;;;;;38.08;24.55;;;11.60;99.90;;;;;;5069319;28;20466;-69
2022/04/24 01:28:59;;;;;;;41.15;23.45;;;11.70;99.90;;;;;;5070820;28;20086;-67
2022/04/24 01:31:25;;;;;;;45.85;25.58;;;11.70;99.90;;;;;;5070705;28;20043;-70
2022/04/24 01:33:51;;;;;;;43.55;25.90;;;11.70;99.90;;;;;;5070352;28;20029;-69
2022/04/24 01:36:17;;;;;;;40.42;26.58;;;11.70;99.90;;;;;;5070734;28;20024;-70
2022/04/24 01:38:43;;;;;;;34.78;22.13;;;11.70;99.90;;;;;;5070473;28;20024;-68
2022/04/24 01:41:09;;;;;;;33.03;21.75;;;11.70;99.90;;;;;;5070594;28;20024;-71
2022/04/24 01:43:39;;;;;;;34.75;23.83;;;11.70;99.90;;;;;;5070410;28;20486;-69
2022/04/24 01:46:06;;;;;;;35.00;22.65;;;11.80;99.90;;;;;;5071026;28;20053;-70
2022/04/24 01:48:35;;;;;;;31.40;21.95;;;11.80;99.90;;;;;;5070118;28;20082;-70
2022/04/24 01:51:05;;;;;;;36.92;22.38;;;11.80;99.90;;;;;;5068728;28;20475;-68
2022/04/24 01:53:32;;;;;;;32.70;20.75;;;11.80;99.90;;;;;;5068614;28;20060;-67
2022/04/24 01:55:59;;;;;;;32.83;21.67;;;11.90;99.90;;;;;;5068008;28;20017;-68
2022/04/24 01:58:26;;;;;;;26.90;18.80;;;11.80;99.90;;;;;;5070146;28;20021;-68
2022/04/24 02:00:52;;;;;;;25.98;17.88;;;11.90;99.90;;;;;;5070333;28;20025;-71
2022/04/24 02:03:20;;;;;;;27.08;17.75;;;11.90;99.90;;;;;;5070967;28;20443;-70
2022/04/24 02:05:46;;;;;;;24.50;16.35;;;11.90;99.90;;;;;;5068546;28;20059;-70
2022/04/24 02:08:12;;;;;;;24.38;16.70;;;11.90;99.90;;;;;;5070018;28;20025;-68
2022/04/24 02:10:39;;;;;;;24.08;15.75;;;11.90;99.90;;;;;;5070098;28;20032;-70
2022/04/24 02:13:05;;;;;;;26.33;17.52;;;11.90;99.90;;;;;;5069450;28;20031;-68
2022/04/24 02:15:31;;;;;;;29.42;16.80;;;12.00;99.90;;;;;;5069445;28;20481;-71
2022/04/24 02:17:57;;;;;;;20.75;14.20;;;12.00;99.90;;;;;;5069256;28;20024;-71
2022/04/24 02:20:28;;;;;;;24.88;15.50;;;12.00;99.90;;;;;;5069499;28;20028;-72
2022/04/24 02:22:56;;;;;;;24.05;15.82;;;12.00;99.90;;;;;;5067990;28;20062;-72
2022/04/24 02:25:22;;;;;;;22.90;15.50;;;12.00;99.90;;;;;;5069523;28;20028;-72
2022/04/24 02:27:59;;;;;;;19.13;13.68;;;12.00;99.90;;;;;;5069160;28;20043;-70
2022/04/24 02:30:30;;;;;;;23.08;13.85;;;12.00;99.90;;;;;;5068265;28;20379;-67
2022/04/24 02:33:00;;;;;;;22.02;14.48;;;12.00;99.90;;;;;;5069463;28;20081;-71
2022/04/24 02:35:28;;;;;;;24.25;15.10;;;11.90;99.90;;;;;;5069334;28;20032;-69
2022/04/24 02:37:54;;;;;;;22.73;15.90;;;11.90;99.90;;;;;;5069381;28;20028;-69
2022/04/24 02:40:21;;;;;;;26.42;15.18;;;11.90;99.90;;;;;;5069237;28;20028;-70
2022/04/24 02:42:51;;;;;;;22.05;14.75;;;11.80;99.90;;;;;;5069376;28;20020;-72
2022/04/24 02:45:18;;;;;;;21.10;14.57;;;11.90;99.90;;;;;;5069104;28;20094;-71
2022/04/24 02:47:45;;;;;;;22.40;13.98;;;11.90;99.90;;;;;;5069407;28;20525;-72
2022/04/24 02:50:12;;;;;;;23.35;14.27;;;11.90;99.90;;;;;;5069467;28;20033;-68
2022/04/24 02:52:52;;;;;;;20.88;13.13;;;11.90;99.90;;;;;;5069061;28;20016;-70
2022/04/24 02:55:19;;;;;;;19.98;14.20;;;11.90;99.90;;;;;;5068155;28;20031;-70
2022/04/24 02:57:46;;;;;;;20.05;13.55;;;11.80;99.90;;;;;;5069002;28;20099;-71
2022/04/24 03:00:13;;;;;;;19.27;12.38;;;11.80;99.90;;;;;;5066796;28;20025;-70
2022/04/24 03:02:43;;;;;;;22.80;13.45;;;11.80;99.90;;;;;;5068882;28;20025;-72
2022/04/24 03:05:11;;;;;;;21.30;13.45;;;11.80;99.90;;;;;;5070108;28;20029;-72
2022/04/24 03:07:37;;;;;;;19.15;12.13;;;11.80;99.90;;;;;;5072729;28;20021;-72
2022/04/24 03:10:03;;;;;;;21.20;13.32;;;11.90;99.90;;;;;;5072744;28;20764;-71
2022/04/24 03:12:30;;;;;;;23.23;12.15;;;11.90;99.90;;;;;;5071109;28;20039;-71
2022/04/24 03:14:56;;;;;;;17.50;11.18;;;11.90;99.90;;;;;;5072843;28;20139;-72
2022/04/24 03:17:22;;;;;;;19.05;11.95;;;11.90;99.90;;;;;;5072835;28;20029;-72
2022/04/24 03:19:48;;;;;;;22.55;12.15;;;11.90;99.90;;;;;;5072596;28;20691;-72
2022/04/24 03:22:14;;;;;;;18.98;12.60;;;11.90;99.90;;;;;;5072310;28;20021;-71
2022/04/24 03:24:40;;;;;;;20.80;12.43;;;11.90;99.90;;;;;;5072843;28;20027;-72
2022/04/24 03:27:06;;;;;;;21.35;11.60;;;12.00;99.90;;;;;;5072706;28;20025;-72
2022/04/24 03:29:32;;;;;;;25.30;12.13;;;12.00;99.90;;;;;;5070576;28;20032;-72
2022/04/24 03:31:58;;;;;;;18.80;12.13;;;12.00;99.90;;;;;;5072619;28;20311;-72
2022/04/24 03:34:24;;;;;;;19.30;11.45;;;12.00;99.90;;;;;;5072507;28;20054;-71
2022/04/24 03:36:49;;;;;;;20.05;12.20;;;11.90;99.90;;;;;;5071274;28;20475;-72
2022/04/24 03:39:15;;;;;;;16.42;10.85;;;12.00;99.90;;;;;;5072593;28;20103;-71
2022/04/24 03:41:41;;;;;;;17.17;10.63;;;12.00;99.90;;;;;;5088289;28;20039;-70
2022/04/24 03:44:07;;;;;;;18.45;12.00;;;12.00;99.90;;;;;;5072782;28;20386;-70
2022/04/24 03:46:33;;;;;;;19.35;10.93;;;12.00;99.90;;;;;;5072686;28;20094;-72
2022/04/24 03:48:59;;;;;;;21.38;11.57;;;12.00;99.90;;;;;;5072725;28;20082;-72
2022/04/24 03:51:24;;;;;;;18.20;10.93;;;12.00;99.90;;;;;;5072741;28;20035;-72
2022/04/24 03:53:50;;;;;;;19.17;10.73;;;11.90;99.90;;;;;;5072453;28;20025;-71
2022/04/24 03:56:16;;;;;;;20.88;12.05;;;11.90;99.90;;;;;;5072572;28;20039;-69
2022/04/24 03:58:42;;;;;;;19.58;11.82;;;11.90;99.90;;;;;;5072631;28;20462;-71
2022/04/24 04:01:08;;;;;;;17.23;11.35;;;11.90;99.90;;;;;;5072464;28;20016;-68
2022/04/24 04:03:33;;;;;;;16.10;10.32;;;12.00;99.90;;;;;;5071946;28;20025;-72
2022/04/24 04:05:59;;;;;;;17.85;10.45;;;12.00;99.90;;;;;;5072430;28;20024;-70
2022/04/24 04:08:25;;;;;;;18.20;12.50;;;12.00;99.90;;;;;;5069726;28;20040;-70
2022/04/24 04:10:51;;;;;;;20.85;12.43;;;12.00;99.90;;;;;;5071797;28;20017;-72
2022/04/24 04:13:17;;;;;;;19.88;13.38;;;12.10;99.90;;;;;;5071923;28;20021;-71
2022/04/24 04:15:43;;;;;;;18.02;10.68;;;12.00;99.90;;;;;;5071275;28;20021;-70
2022/04/24 04:18:09;;;;;;;18.70;12.27;;;12.10;99.90;;;;;;5071560;28;20478;-72
2022/04/24 04:20:34;;;;;;;19.90;11.90;;;12.10;99.90;;;;;;5071601;28;20016;-72
2022/04/24 04:23:03;;;;;;;15.23;10.05;;;12.10;99.90;;;;;;5071843;28;20036;-70
2022/04/24 04:25:29;;;;;;;19.58;10.68;;;12.20;99.90;;;;;;5071791;28;20017;-67
2022/04/24 04:27:54;;;;;;;22.02;11.93;;;12.20;99.90;;;;;;5071793;28;20039;-72
2022/04/24 04:30:21;;;;;;;24.50;12.98;;;12.30;99.90;;;;;;5071225;28;20024;-70
2022/04/24 04:32:48;;;;;;;28.33;18.95;;;12.30;99.90;;;;;;5071401;28;20059;-70
2022/04/24 04:35:14;;;;;;;31.67;20.30;;;12.30;99.90;;;;;;5071209;28;20100;-68
2022/04/24 04:37:40;;;;;;;37.28;21.67;;;12.30;99.90;;;;;;5071392;28;20510;-72
2022/04/24 04:40:07;;;;;;;32.03;21.65;;;12.30;99.90;;;;;;5071324;28;20046;-70
2022/04/24 04:42:33;;;;;;;31.17;21.65;;;12.30;99.90;;;;;;5069589;28;20037;-71
2022/04/24 04:45:00;;;;;;;35.42;21.15;;;12.30;99.90;;;;;;5071163;28;20051;-67
2022/04/24 04:47:27;;;;;;;30.40;18.35;;;12.30;99.90;;;;;;5071197;28;20024;-70
2022/04/24 04:49:54;;;;;;;29.42;20.55;;;12.30;99.90;;;;;;5071067;28;20461;-72
2022/04/24 04:52:21;;;;;;;31.48;21.38;;;12.30;99.90;;;;;;5069141;28;20024;-71
2022/04/24 04:54:46;;;;;;;30.50;19.30;;;12.30;99.90;;;;;;5071299;28;20017;-72
2022/04/24 04:57:12;;;;;;;27.65;17.83;;;12.40;99.90;;;;;;5071113;28;20024;-72
2022/04/24 04:59:38;;;;;;;27.25;18.40;;;12.40;99.90;;;;;;5071298;28;20099;-67
2022/04/24 05:02:04;;;;;;;25.10;17.05;;;12.40;99.90;;;;;;5070754;28;20024;-72
2022/04/24 05:04:30;;;;;;;25.77;14.90;;;12.40;99.90;;;;;;5071244;28;20016;-71
2022/04/24 05:06:58;;;;;;;23.90;14.38;;;12.50;99.90;;;;;;5071021;28;20008;-69
2022/04/24 05:09:24;;;;;;;23.30;15.82;;;12.60;99.90;;;;;;5068986;28;20040;-71
2022/04/24 05:11:53;;;;;;;26.73;16.80;;;12.60;99.90;;;;;;5071064;28;20061;-68
2022/04/24 05:14:19;;;;;;;28.85;16.60;;;12.70;99.90;;;;;;5070638;28;20016;-72
2022/04/24 05:16:45;;;;;;;30.75;18.65;;;12.80;99.90;;;;;;5070900;28;20039;-71
2022/04/24 05:19:11;;;;;;;35.10;23.05;;;12.80;99.90;;;;;;5070908;28;20025;-67
2022/04/24 05:21:36;;;;;;;39.47;23.08;;;12.80;99.90;;;;;;5070946;28;20521;-70
2022/04/24 05:24:03;;;;;;;39.97;26.25;;;12.90;99.90;;;;;;5070462;28;20073;-71
2022/04/24 05:26:29;;;;;;;42.58;25.35;;;13.00;99.90;;;;;;5070700;28;20028;-71
2022/04/24 05:29:03;;;;;;;40.33;23.33;;;13.00;99.90;;;;;;5069598;28;20031;-71
2022/04/24 05:31:30;;;;;;;23.88;17.10;;;12.90;99.90;;;;;;5068882;28;20016;-71
2022/04/24 05:33:56;;;;;;;20.92;13.55;;;13.00;99.90;;;;;;5070389;28;20017;-71
2022/04/24 05:36:22;;;;;;;19.33;10.98;;;13.00;99.90;;;;;;5070380;28;20040;-72
2022/04/24 05:38:47;;;;;;;18.20;10.68;;;13.00;99.90;;;;;;5070143;28;20016;-69
2022/04/24 05:41:13;;;;;;;18.08;10.13;;;13.00;99.90;;;;;;5070701;28;20383;-72
2022/04/24 05:43:39;;;;;;;14.63;8.57;;;13.00;99.90;;;;;;5070564;28;20027;-69
2022/04/24 05:46:05;;;;;;;18.50;10.90;;;13.10;99.90;;;;;;5069912;28;20044;-71
2022/04/24 05:48:31;;;;;;;16.10;10.18;;;13.10;99.90;;;;;;5072418;28;20033;-70
2022/04/24 05:50:57;;;;;;;19.30;9.73;;;13.20;99.90;;;;;;5070293;28;20033;-71
2022/04/24 05:53:23;;;;;;;13.93;8.80;;;13.30;99.90;;;;;;5070152;28;20434;-69
2022/04/24 05:55:49;;;;;;;21.38;10.38;;;13.40;99.90;;;;;;5070511;28;20033;-72
2022/04/24 05:58:15;;;;;;;18.48;11.35;;;13.60;99.90;;;;;;5068218;28;20023;-72
2022/04/24 06:00:43;;;;;;;24.70;14.82;;;13.80;99.90;;;;;;5070302;28;20032;-72
2022/04/24 06:03:09;;;;;;;22.40;15.55;;;13.90;99.90;;;;;;5070052;28;20008;-71
2022/04/24 06:05:35;;;;;;;26.25;17.60;;;14.00;99.90;;;;;;5070517;28;20527;-70
2022/04/24 06:08:01;;;;;;;28.13;16.85;;;14.10;99.90;;;;;;5067948;28;20028;-69
2022/04/24 06:10:27;;;;;;;26.80;17.92;;;14.30;99.90;;;;;;5070012;28;20073;-71
2022/04/24 06:12:54;;;;;;;25.05;15.32;;;14.40;99.90;;;;;;5068825;28;20016;-72
2022/04/24 06:15:32;;;;;;;27.38;16.60;;;14.60;99.90;;;;;;5065314;28;20024;-69
2022/04/24 06:17:59;;;;;;;23.73;16.48;;;14.60;99.90;;;;;;5067235;28;20031;-71
2022/04/24 06:20:27;;;;;;;26.38;16.52;;;14.60;99.90;;;;;;5069675;28;20101;-72
2022/04/24 06:22:58;;;;;;;21.40;12.80;;;14.80;99.90;;;;;;5069830;28;20382;-72
2022/04/24 06:25:31;;;;;;;21.00;12.00;;;14.80;99.90;;;;;;5068360;28;20016;-71
2022/04/24 06:27:57;;;;;;;25.73;18.23;;;14.70;99.90;;;;;;5068493;28;20020;-72
2022/04/24 06:30:25;;;;;;;17.45;11.48;;;14.80;99.90;;;;;;5069402;28;20035;-72
2022/04/24 06:32:51;;;;;;;15.55;8.80;;;14.90;99.90;;;;;;5067697;28;20036;-69
2022/04/24 06:35:23;;;;;;;20.90;10.02;;;15.10;99.90;;;;;;5069438;28;20066;-72
2022/04/24 06:37:54;;;;;;;13.18;7.43;;;15.10;99.90;;;;;;5069190;28;20032;-71
2022/04/24 06:40:23;;;;;;;16.27;8.15;;;15.10;99.90;;;;;;5071112;28;20078;-72
2022/04/24 06:42:57;;;;;;;17.15;9.35;;;15.30;99.90;;;;;;5073707;28;20021;-70
2022/04/24 06:45:30;;;;;;;17.67;10.82;;;15.60;99.90;;;;;;5071517;28;20044;-70
2022/04/24 06:47:58;;;;;;;24.85;15.68;;;15.90;99.90;;;;;;5071465;28;20082;-70
2022/04/24 06:50:28;;;;;;;23.52;14.50;;;16.10;99.90;;;;;;5073092;28;20032;-71
2022/04/24 06:52:57;;;;;;;18.65;12.13;;;16.40;99.90;;;;;;5072434;28;20190;-70
2022/04/24 06:55:23;;;;;;;16.95;10.00;;;16.60;99.90;;;;;;5055019;28;20012;-72
2022/04/24 06:57:51;;;;;;;17.45;9.98;;;16.70;99.90;;;;;;5073361;28;20029;-71
2022/04/24 07:00:19;;;;;;;16.15;8.63;;;16.90;99.90;;;;;;5072838;28;20044;-72
2022/04/24 07:02:45;;;;;;;13.18;7.72;;;17.10;99.90;;;;;;5070587;28;20419;-72
2022/04/24 07:05:11;;;;;;;15.35;7.03;;;17.10;99.90;;;;;;5072874;28;20021;-71
2022/04/24 07:07:37;;;;;;;12.35;6.65;;;17.00;99.90;;;;;;5072958;28;20039;-70
2022/04/24 07:10:03;;;;;;;12.15;6.55;;;17.20;99.90;;;;;;5053598;28;20033;-71
2022/04/24 07:12:30;;;;;;;12.02;5.70;;;17.30;99.90;;;;;;5052702;28;20031;-70
2022/04/24 07:14:56;;;;;;;11.75;5.50;;;17.40;99.90;;;;;;5059008;28;20031;-70
2022/04/24 07:17:22;;;;;;;7.43;4.30;;;17.40;99.90;;;;;;5071374;28;20020;-71
2022/04/24 07:19:48;;;;;;;12.60;4.90;;;17.60;99.90;;;;;;5072050;28;20499;-72
2022/04/24 07:22:16;;;;;;;8.93;4.50;;;17.70;99.90;;;;;;5072282;28;20056;-72
2022/04/24 07:24:42;;;;;;;10.10;5.63;;;17.90;99.90;;;;;;5072947;28;20028;-72
2022/04/24 07:27:08;;;;;;;8.90;4.18;;;18.00;99.90;;;;;;5073089;28;20035;-71
2022/04/24 07:29:34;;;;;;;8.02;4.68;;;18.10;99.90;;;;;;5073189;28;20037;-71
2022/04/24 07:32:02;;;;;;;9.38;3.88;;;18.20;99.90;;;;;;5073115;28;20115;-72
2022/04/24 07:34:30;;;;;;;8.93;4.70;;;18.50;99.90;;;;;;5071682;28;20029;-68
2022/04/24 07:36:56;;;;;;;10.35;5.25;;;18.60;99.90;;;;;;5072779;28;20463;-71
2022/04/24 07:39:22;;;;;;;9.75;4.85;;;18.80;99.90;;;;;;5073130;28;20024;-72
2022/04/24 07:41:48;;;;;;;18.25;10.98;;;19.00;99.90;;;;;;5073169;28;20490;-72
2022/04/24 07:44:13;;;;;;;12.75;7.22;;;18.80;99.90;;;;;;5068281;28;20395;-71
2022/04/24 07:46:39;;;;;;;15.10;6.00;;;19.10;99.90;;;;;;5054593;28;20127;-71
2022/04/24 07:49:05;;;;;;;12.73;6.13;;;19.10;99.90;;;;;;5052783;28;20101;-68
2022/04/24 07:51:31;;;;;;;8.48;5.05;;;19.40;99.90;;;;;;5052467;28;20029;-72
2022/04/24 07:53:57;;;;;;;9.15;5.13;;;19.60;99.90;;;;;;5052865;28;20036;-71
2022/04/24 07:56:22;;;;;;;9.15;5.85;;;19.50;99.90;;;;;;5064511;28;20666;-70
2022/04/24 07:58:48;;;;;;;11.77;5.15;;;19.60;99.90;;;;;;5059415;28;20510;-72
2022/04/24 08:01:16;;;;;;;11.57;5.63;;;19.70;99.90;;;;;;5052592;28;20060;-72
2022/04/24 08:03:42;;;;;;;12.18;6.00;;;19.80;98.10;;;;;;5053215;28;20104;-72
2022/04/24 08:06:08;;;;;;;10.75;5.80;;;19.80;99.90;;;;;;5052969;28;20139;-72
2022/04/24 08:08:34;;;;;;;9.30;5.35;;;19.70;99.90;;;;;;5052847;28;20033;-72
2022/04/24 08:11:00;;;;;;;9.02;4.93;;;19.80;99.50;;;;;;5052804;28;20493;-72
2022/04/24 08:13:27;;;;;;;10.45;5.78;;;20.00;99.60;;;;;;5052823;28;20055;-71
2022/04/24 08:15:53;;;;;;;16.25;7.63;;;20.00;99.90;;;;;;5072476;28;20347;-72
2022/04/24 08:18:19;;;;;;;14.07;6.70;;;20.10;99.80;;;;;;5072968;28;20508;-69
2022/04/24 08:20:45;;;;;;;10.48;5.88;;;20.10;98.90;;;;;;5072983;28;20024;-72
2022/04/24 08:23:15;;;;;;;11.30;6.40;;;20.40;99.90;;;;;;5073289;28;20028;-71
2022/04/24 08:25:41;;;;;;;11.68;6.70;;;20.50;98.60;;;;;;5072847;28;20151;-72
2022/04/24 08:28:09;;;;;;;14.43;6.28;;;20.60;99.40;;;;;;5072965;28;20525;-72
2022/04/24 08:30:41;;;;;;;21.63;4.97;;;20.50;99.90;;;;;;5072562;28;20032;-71
2022/04/24 08:33:08;;;;;;;11.50;5.63;;;20.40;96.70;;;;;;5051496;28;20478;-73
2022/04/24 08:35:34;;;;;;;10.90;5.88;;;20.60;98.30;;;;;;5049971;28;20269;-72
2022/04/24 08:38:00;;;;;;;11.70;6.40;;;20.50;99.90;;;;;;5066822;28;20025;-72
2022/04/24 08:40:26;;;;;;;10.65;6.20;;;20.60;98.00;;;;;;5072470;28;20025;-73
2022/04/24 08:42:54;;;;;;;12.10;6.13;;;20.80;99.50;;;;;;5072103;28;20032;-72
2022/04/24 08:45:25;;;;;;;12.77;5.65;;;21.00;98.80;;;;;;5071271;28;20036;-73
2022/04/24 08:47:51;;;;;;;12.27;5.50;;;21.00;96.40;;;;;;5072391;28;20113;-73
2022/04/24 08:50:18;;;;;;;9.68;5.30;;;21.10;99.90;;;;;;5072572;28;20036;-73
2022/04/24 08:52:44;;;;;;;10.35;5.75;;;21.20;99.90;;;;;;5071994;28;20033;-73
2022/04/24 08:55:11;;;;;;;9.63;5.28;;;21.30;99.90;;;;;;5072412;28;20028;-72
2022/04/24 08:57:37;;;;;;;9.05;4.63;;;21.40;96.60;;;;;;5072158;28;20021;-73
2022/04/24 09:00:07;;;;;;;12.15;5.50;;;21.60;96.50;;;;;;5071322;28;20463;-72
2022/04/24 09:02:36;;;;;;;13.25;4.95;;;21.50;94.40;;;;;;5070932;28;20029;-73
2022/04/24 09:05:06;;;;;;;12.05;6.38;;;21.20;95.10;;;;;;5071766;28;20028;-73
2022/04/24 09:07:33;;;;;;;9.50;5.53;;;21.10;95.40;;;;;;5071741;28;20036;-73
2022/04/24 09:10:04;;;;;;;13.77;5.90;;;21.10;97.80;;;;;;5071696;28;20093;-73
2022/04/24 09:12:30;;;;;;;14.48;7.10;;;21.20;99.60;;;;;;5071701;28;20033;-73
2022/04/24 09:14:57;;;;;;;16.35;8.02;;;21.20;97.10;;;;;;5072098;28;20024;-72
2022/04/24 09:17:25;;;;;;;22.17;10.40;;;21.30;98.40;;;;;;5071706;28;20075;-74
2022/04/24 09:19:53;;;;;;;14.95;7.80;;;21.50;97.20;;;;;;5071263;28;20056;-71
2022/04/24 09:22:19;;;;;;;14.18;7.88;;;21.60;95.10;;;;;;5071174;28;20032;-73
2022/04/24 09:24:55;;;;;;;15.02;8.40;;;21.70;94.40;;;;;;5071240;28;20021;-72
2022/04/24 09:27:30;;;;;;;14.00;8.40;;;21.90;93.80;;;;;;5071275;28;20039;-73
2022/04/24 09:30:04;;;;;;;12.75;6.75;;;22.10;94.90;;;;;;5070798;28;20040;-73
2022/04/24 09:32:37;;;;;;;17.52;7.40;;;22.00;93.90;;;;;;5071220;28;20025;-73
2022/04/24 09:35:03;;;;;;;;;;;21.80;93.10;;;;;;5071382;28;20433;-72
2022/04/24 09:37:39;;;;;;;12.63;7.35;;;21.70;94.10;;;;;;5070992;28;20050;-73
2022/04/24 09:40:05;;;;;;;16.50;8.65;;;21.10;95.40;;;;;;5070488;28;20028;-72
2022/04/24 09:42:31;;;;;;;16.98;9.00;;;21.20;95.40;;;;;;5070868;28;20033;-72
2022/04/24 09:44:59;;;;;;;22.02;11.00;;;21.10;95.10;;;;;;5070523;28;20522;-73
2022/04/24 09:47:26;;;;;;;26.73;10.60;;;21.20;93.50;;;;;;5070749;28;20636;-73
2022/04/24 09:49:53;;;;;;;18.08;9.70;;;21.30;95.10;;;;;;5070311;28;20034;-71
2022/04/24 09:52:24;;;;;;;14.00;8.05;;;21.50;98.30;;;;;;5070035;28;20435;-73
2022/04/24 09:54:53;;;;;;;17.17;7.28;;;21.30;94.10;;;;;;5071296;28;20057;-72
2022/04/24 09:57:22;;;;;;;18.25;7.80;;;21.10;95.60;;;;;;5071208;28;20032;-71
2022/04/24 09:59:50;;;;;;;16.42;7.22;;;21.00;95.40;;;;;;5071365;28;20021;-72
2022/04/24 10:02:17;;;;;;;12.15;6.47;;;21.30;94.50;;;;;;5071385;28;20099;-73
2022/04/24 10:04:45;;;;;;;16.30;7.05;;;21.30;94.10;;;;;;5071515;28;20032;-72
2022/04/24 10:07:15;;;;;;;20.25;6.38;;;21.40;91.00;;;;;;5070750;28;20441;-72
2022/04/24 10:09:44;;;;;;;18.23;5.88;;;21.60;91.20;;;;;;5070951;28;20075;-73
2022/04/24 10:12:14;;;;;;;17.63;7.35;;;21.70;92.70;;;;;;5069594;28;20035;-72
2022/04/24 10:15:12;;;;;;;15.98;8.07;;;21.80;88.30;;;;;;5070484;28;20051;-73
2022/04/24 10:17:46;;;;;;;17.25;8.45;;;22.10;86.00;;;;;;5070975;28;20044;-72
2022/04/24 10:20:41;;;;;;;14.27;6.80;;;22.30;86.60;;;;;;5071097;28;20047;-72
2022/04/24 10:23:08;;;;;;;18.33;8.38;;;22.60;84.30;;;;;;5071481;28;20028;-73
2022/04/24 10:25:40;;;;;;;14.85;6.90;;;22.40;82.80;;;;;;5070731;28;20060;-72
2022/04/24 10:28:17;;;;;;;14.77;6.00;;;22.70;81.20;;;;;;5071108;28;20482;-72
2022/04/24 10:31:00;;;;;;;12.68;6.88;;;22.70;82.80;;;;;;5071176;28;20032;-72
2022/04/24 10:33:32;;;;;;;13.32;6.30;;;23.00;82.80;;;;;;5071177;28;20024;-72
2022/04/24 10:36:15;;;;;;;11.75;5.70;;;23.20;84.40;;;;;;5070791;28;20066;-71
2022/04/24 10:38:54;;;;;;;11.35;5.28;;;22.70;79.80;;;;;;5070861;28;20039;-72
2022/04/24 10:41:24;;;;;;;14.93;6.43;;;22.90;84.40;;;;;;5070908;28;20025;-71
2022/04/24 10:43:56;;;;;;;14.38;6.93;;;23.00;76.30;;;;;;5071323;28;20519;-70
2022/04/24 10:46:33;;;;;;;13.95;5.97;;;23.10;78.80;;;;;;5071174;28;20135;-71
2022/04/24 10:49:13;;;;;;;13.27;6.50;;;23.10;80.00;;;;;;5070936;28;20050;-71
2022/04/24 10:51:42;;;;;;;16.23;7.15;;;23.10;80.00;;;;;;5071001;28;20028;-72
2022/04/24 10:54:13;;;;;;;14.90;6.70;;;23.10;80.40;;;;;;5071079;28;20021;-72
2022/04/24 10:56:42;;;;;;;16.73;6.75;;;23.10;79.00;;;;;;5070777;28;20082;-69
2022/04/24 10:59:18;;;;;;;13.32;5.15;;;23.40;79.70;;;;;;5070648;28;20501;-72
2022/04/24 11:01:45;;;;;;;12.77;5.18;;;23.50;82.70;;;;;;5071150;28;20025;-72
2022/04/24 11:04:14;;;;;;;12.32;5.68;;;23.60;72.40;;;;;;5070781;28;20104;-71
2022/04/24 11:06:55;;;;;;;12.32;4.97;;;23.70;69.70;;;;;;5070346;28;20783;-69
2022/04/24 11:09:22;;;;;;;10.25;4.25;;;23.70;68.40;;;;;;5069598;28;20081;-73
2022/04/24 11:11:57;;;;;;;13.00;4.55;;;23.70;69.40;;;;;;5068091;28;20467;-71
2022/04/24 11:14:27;;;;;;;9.50;3.85;;;23.80;71.40;;;;;;5068261;28;20024;-70
2022/04/24 11:16:56;;;;;;;10.32;3.95;;;23.90;66.80;;;;;;5070285;28;20028;-72
2022/04/24 11:19:31;;;;;;;14.93;3.78;;;23.70;63.00;;;;;;5069715;28;20025;-71
2022/04/24 11:22:09;;;;;;;12.82;4.10;;;24.00;64.40;;;;;;5070249;28;20360;-70
2022/04/24 11:24:37;;;;;;;8.30;3.50;;;23.80;63.70;;;;;;5070187;28;20090;-73
2022/04/24 11:27:12;;;;;;;10.43;3.65;;;23.60;60.10;;;;;;5072598;28;20013;-72
2022/04/24 11:29:39;;;;;;;8.98;2.97;;;23.80;59.50;;;;;;5073848;28;20036;-69
2022/04/24 11:32:08;;;;;;;11.68;4.15;;;23.90;58.60;;;;;;5074360;28;20021;-72
2022/04/24 11:34:34;;;;;;;8.45;3.35;;;24.10;57.80;;;;;;5074307;28;20085;-70
2022/04/24 11:37:01;;;;;;;9.18;3.20;;;23.90;57.70;;;;;;5074173;28;20032;-69
2022/04/24 11:39:27;;;;;;;9.15;2.65;;;24.00;57.90;;;;;;5072580;28;20426;-71
2022/04/24 11:41:55;;;;;;;8.32;3.20;;;24.00;57.20;;;;;;5073980;28;20069;-71
2022/04/24 11:52:46;;;;;;;6.13;2.97;;;24.50;59.00;;;;;;5053583;28;20527;-72
2022/04/24 11:55:21;;;;;;;8.07;3.40;;;24.30;57.30;;;;;;5053451;28;20065;-68
2022/04/24 11:58:01;;;;;;;8.88;3.15;;;24.10;60.60;;;;;;5053719;28;20033;-71
2022/04/24 12:00:37;;;;;;;13.70;3.58;;;24.00;58.30;;;;;;5053505;28;20056;-72
2022/04/24 12:03:05;;;;;;;9.35;3.40;;;24.10;58.40;;;;;;5053801;28;20032;-71
2022/04/24 12:05:32;;;;;;;9.27;3.38;;;24.00;59.20;;;;;;5051498;28;20031;-68
2022/04/24 12:07:58;;;;;;;6.30;2.80;;;24.00;58.70;;;;;;5053969;28;20032;-71
2022/04/24 12:10:26;;;;;;;6.53;2.38;;;24.10;61.80;;;;;;5053855;28;20119;-71
2022/04/24 12:12:53;;;;;;;10.13;2.58;;;23.70;58.80;;;;;;5054150;28;20505;-70
2022/04/24 12:15:22;;;;;;;6.38;3.00;;;23.50;58.10;;;;;;5057452;28;20012;-72
2022/04/24 12:17:49;;;;;;;10.10;4.30;;;23.60;55.40;;;;;;5073895;28;20032;-73
2022/04/24 12:20:15;;;;;;;7.72;2.42;;;23.40;56.70;;;;;;5073401;28;20024;-70
2022/04/24 12:22:41;;;;;;;12.75;3.47;;;23.60;58.10;;;;;;5073908;28;20039;-71
2022/04/24 12:25:09;;;;;;;7.50;3.10;;;23.70;57.00;;;;;;5073762;28;20027;-71
2022/04/24 12:27:36;;;;;;;7.20;2.53;;;23.80;60.30;;;;;;5076992;28;20028;-72
2022/04/24 12:30:07;;;;;;;10.32;4.00;;;23.90;56.70;;;;;;5084473;28;20036;-71
2022/04/24 12:32:38;;;;;;;15.70;3.08;;;23.70;55.90;;;;;;5079503;28;20523;-69
2022/04/24 12:35:04;;;;;;;6.43;3.28;;;24.10;57.50;;;;;;5065535;28;20074;-72
2022/04/24 12:37:32;;;;;;;9.15;2.78;;;24.40;59.10;;;;;;5065160;28;20025;-71
2022/04/24 12:39:59;;;;;;;8.77;2.72;;;24.30;58.00;;;;;;5077519;28;20039;-69
2022/04/24 12:42:26;;;;;;;7.43;2.53;;;24.40;55.60;;;;;;5083240;28;20100;-72
2022/04/24 12:44:53;;;;;;;7.45;3.03;;;24.20;55.40;;;;;;5073066;28;20399;-70